sensor_id;sensor_type;location;lat;lon;timestamp;temperature;humidity
8557;DHT22;4316;53.840;10.762;2024-02-23T00:02:19;10.80;1.00
8557;DHT22;4316;53.840;10.762;2024-02-23T00:04:44;10.70;1.00
8557;DHT22;4316;53.840;10.762;2024-02-23T00:07:10;10.70;1.00
8557;DHT22;4316;53.840;10.762;2024-02-23T00:09:37;10.70;1.00
8557;DHT22;4316;53.840;10.762;2024-02-23T00:12:03;10.70;1.00
8557;DHT22;4316;53.840;10.762;2024-02-23T00:14:30;10.60;1.00
8557;DHT22;4316;53.840;10.762;2024-02-23T00:17:02;10.50;1.00
8557;DHT22;4316;53.840;10.762;2024-02-23T00:19:30;10.50;1.00
8557;DHT22;4316;53.840;10.762;2024-02-23T00:21:56;10.40;1.00
8557;DHT22;4316;53.840;10.762;2024-02-23T00:24:25;10.30;1.00
8557;DHT22;4316;53.840;10.762;2024-02-23T00:26:50;10.30;1.00
8557;DHT22;4316;53.840;10.762;2024-02-23T00:29:17;10.30;1.00
8557;DHT22;4316;53.840;10.762;2024-02-23T00:31:43;10.30;1.00
8557;DHT22;4316;53.840;10.762;2024-02-23T00:34:12;10.30;1.00
8557;DHT22;4316;53.840;10.762;2024-02-23T00:36:42;10.20;1.00
8557;DHT22;4316;53.840;10.762;2024-02-23T00:39:10;10.20;1.00
8557;DHT22;4316;53.840;10.762;2024-02-23T00:41:36;10.20;1.00
8557;DHT22;4316;53.840;10.762;2024-02-23T00:44:03;10.20;1.00
8557;DHT22;4316;53.840;10.762;2024-02-23T00:46:29;10.20;1.00
8557;DHT22;4316;53.840;10.762;2024-02-23T00:48:54;10.20;1.00
8557;DHT22;4316;53.840;10.762;2024-02-23T00:51:21;10.20;1.00
8557;DHT22;4316;53.840;10.762;2024-02-23T00:53:47;10.10;1.00
8557;DHT22;4316;53.840;10.762;2024-02-23T00:56:12;10.10;1.00
8557;DHT22;4316;53.840;10.762;2024-02-23T00:58:39;10.10;1.00
8557;DHT22;4316;53.840;10.762;2024-02-23T01:01:05;10.00;1.00
8557;DHT22;4316;53.840;10.762;2024-02-23T01:03:31;10.00;1.00
8557;DHT22;4316;53.840;10.762;2024-02-23T01:05:56;10.00;1.00
8557;DHT22;4316;53.840;10.762;2024-02-23T01:08:22;9.90;1.00
8557;DHT22;4316;53.840;10.762;2024-02-23T01:10:48;9.90;1.00
8557;DHT22;4316;53.840;10.762;2024-02-23T01:13:14;9.90;1.00
8557;DHT22;4316;53.840;10.762;2024-02-23T01:15:40;9.80;1.00
8557;DHT22;4316;53.840;10.762;2024-02-23T01:18:06;9.80;1.00
8557;DHT22;4316;53.840;10.762;2024-02-23T01:20:33;9.80;1.00
8557;DHT22;4316;53.840;10.762;2024-02-23T01:23:00;9.80;1.00
8557;DHT22;4316;53.840;10.762;2024-02-23T01:25:25;9.80;1.00
8557;DHT22;4316;53.840;10.762;2024-02-23T01:27:51;9.80;1.00
8557;DHT22;4316;53.840;10.762;2024-02-23T01:30:17;9.70;1.00
8557;DHT22;4316;53.840;10.762;2024-02-23T01:32:45;9.40;1.00
8557;DHT22;4316;53.840;10.762;2024-02-23T01:35:11;9.20;1.00
8557;DHT22;4316;53.840;10.762;2024-02-23T01:37:37;8.90;1.00
8557;DHT22;4316;53.840;10.762;2024-02-23T01:40:03;8.60;1.00
8557;DHT22;4316;53.840;10.762;2024-02-23T01:42:29;8.50;1.00
8557;DHT22;4316;53.840;10.762;2024-02-23T01:44:55;8.40;1.00
8557;DHT22;4316;53.840;10.762;2024-02-23T01:47:24;8.30;1.00
8557;DHT22;4316;53.840;10.762;2024-02-23T01:49:51;8.10;1.00
8557;DHT22;4316;53.840;10.762;2024-02-23T01:52:21;7.90;1.00
8557;DHT22;4316;53.840;10.762;2024-02-23T01:54:47;8.10;1.00
8557;DHT22;4316;53.840;10.762;2024-02-23T01:57:13;8.10;1.00
8557;DHT22;4316;53.840;10.762;2024-02-23T01:59:39;8.00;1.00
8557;DHT22;4316;53.840;10.762;2024-02-23T02:02:06;8.00;1.00
8557;DHT22;4316;53.840;10.762;2024-02-23T02:04:32;8.00;1.00
8557;DHT22;4316;53.840;10.762;2024-02-23T02:06:59;8.00;1.00
8557;DHT22;4316;53.840;10.762;2024-02-23T02:09:26;7.90;1.00
8557;DHT22;4316;53.840;10.762;2024-02-23T02:11:51;8.00;1.00
8557;DHT22;4316;53.840;10.762;2024-02-23T02:14:17;7.90;1.00
8557;DHT22;4316;53.840;10.762;2024-02-23T02:16:44;7.90;1.00
8557;DHT22;4316;53.840;10.762;2024-02-23T02:19:10;7.90;1.00
8557;DHT22;4316;53.840;10.762;2024-02-23T02:21:37;7.90;1.00
8557;DHT22;4316;53.840;10.762;2024-02-23T02:24:03;7.90;1.00
8557;DHT22;4316;53.840;10.762;2024-02-23T02:26:30;8.00;1.00
8557;DHT22;4316;53.840;10.762;2024-02-23T02:28:55;8.00;1.00
8557;DHT22;4316;53.840;10.762;2024-02-23T02:31:21;8.00;1.00
8557;DHT22;4316;53.840;10.762;2024-02-23T02:33:47;8.00;1.00
8557;DHT22;4316;53.840;10.762;2024-02-23T02:36:12;8.00;1.00
8557;DHT22;4316;53.840;10.762;2024-02-23T02:38:38;7.90;1.00
8557;DHT22;4316;53.840;10.762;2024-02-23T02:41:04;7.90;1.00
8557;DHT22;4316;53.840;10.762;2024-02-23T02:43:31;7.90;1.00
8557;DHT22;4316;53.840;10.762;2024-02-23T02:45:57;8.10;1.00
8557;DHT22;4316;53.840;10.762;2024-02-23T02:48:23;7.80;1.00
8557;DHT22;4316;53.840;10.762;2024-02-23T02:50:50;7.70;1.00
8557;DHT22;4316;53.840;10.762;2024-02-23T02:53:16;7.70;1.00
8557;DHT22;4316;53.840;10.762;2024-02-23T02:55:43;7.70;1.00
8557;DHT22;4316;53.840;10.762;2024-02-23T02:58:11;7.70;1.00
8557;DHT22;4316;53.840;10.762;2024-02-23T03:00:37;7.60;1.00
8557;DHT22;4316;53.840;10.762;2024-02-23T03:03:02;7.60;1.00
8557;DHT22;4316;53.840;10.762;2024-02-23T03:05:28;7.60;1.00
8557;DHT22;4316;53.840;10.762;2024-02-23T03:07:54;7.60;1.00
8557;DHT22;4316;53.840;10.762;2024-02-23T03:10:20;7.60;1.00
8557;DHT22;4316;53.840;10.762;2024-02-23T03:12:46;7.60;1.00
8557;DHT22;4316;53.840;10.762;2024-02-23T03:15:12;7.50;1.00
8557;DHT22;4316;53.840;10.762;2024-02-23T03:17:38;7.50;1.00
8557;DHT22;4316;53.840;10.762;2024-02-23T03:20:05;7.50;1.00
8557;DHT22;4316;53.840;10.762;2024-02-23T03:22:35;7.40;1.00
8557;DHT22;4316;53.840;10.762;2024-02-23T03:25:02;7.30;1.00
8557;DHT22;4316;53.840;10.762;2024-02-23T03:27:34;7.30;1.00
8557;DHT22;4316;53.840;10.762;2024-02-23T03:30:04;7.20;1.00
8557;DHT22;4316;53.840;10.762;2024-02-23T03:32:30;7.20;1.00
8557;DHT22;4316;53.840;10.762;2024-02-23T03:35:06;7.20;1.00
8557;DHT22;4316;53.840;10.762;2024-02-23T03:37:32;7.10;1.00
8557;DHT22;4316;53.840;10.762;2024-02-23T03:39:58;7.10;1.00
8557;DHT22;4316;53.840;10.762;2024-02-23T03:42:28;7.00;1.00
8557;DHT22;4316;53.840;10.762;2024-02-23T03:44:54;7.00;1.00
8557;DHT22;4316;53.840;10.762;2024-02-23T03:47:20;7.10;1.00
8557;DHT22;4316;53.840;10.762;2024-02-23T03:49:46;7.00;1.00
8557;DHT22;4316;53.840;10.762;2024-02-23T03:52:12;7.00;1.00
8557;DHT22;4316;53.840;10.762;2024-02-23T03:54:38;7.00;1.00
8557;DHT22;4316;53.840;10.762;2024-02-23T03:57:04;7.00;1.00
8557;DHT22;4316;53.840;10.762;2024-02-23T03:59:29;7.00;1.00
8557;DHT22;4316;53.840;10.762;2024-02-23T04:01:56;7.00;1.00
8557;DHT22;4316;53.840;10.762;2024-02-23T04:04:21;6.90;1.00
8557;DHT22;4316;53.840;10.762;2024-02-23T04:06:47;7.00;1.00
8557;DHT22;4316;53.840;10.762;2024-02-23T04:09:13;6.90;1.00
8557;DHT22;4316;53.840;10.762;2024-02-23T04:11:39;6.90;1.00
8557;DHT22;4316;53.840;10.762;2024-02-23T04:14:05;6.90;1.00
8557;DHT22;4316;53.840;10.762;2024-02-23T04:16:31;6.90;1.00
8557;DHT22;4316;53.840;10.762;2024-02-23T04:18:57;6.90;1.00
8557;DHT22;4316;53.840;10.762;2024-02-23T04:21:23;6.90;1.00
8557;DHT22;4316;53.840;10.762;2024-02-23T04:23:49;6.80;1.00
8557;DHT22;4316;53.840;10.762;2024-02-23T04:26:15;6.80;1.00
8557;DHT22;4316;53.840;10.762;2024-02-23T04:28:41;6.70;1.00
8557;DHT22;4316;53.840;10.762;2024-02-23T04:31:10;6.90;1.00
8557;DHT22;4316;53.840;10.762;2024-02-23T04:33:37;6.70;1.00
8557;DHT22;4316;53.840;10.762;2024-02-23T04:36:03;6.70;1.00
8557;DHT22;4316;53.840;10.762;2024-02-23T04:38:33;6.70;1.00
8557;DHT22;4316;53.840;10.762;2024-02-23T04:41:05;6.60;1.00
8557;DHT22;4316;53.840;10.762;2024-02-23T04:43:31;6.60;1.00
8557;DHT22;4316;53.840;10.762;2024-02-23T04:45:57;6.50;1.00
8557;DHT22;4316;53.840;10.762;2024-02-23T04:48:23;6.60;1.00
8557;DHT22;4316;53.840;10.762;2024-02-23T04:50:48;6.50;1.00
8557;DHT22;4316;53.840;10.762;2024-02-23T04:53:14;6.60;1.00
8557;DHT22;4316;53.840;10.762;2024-02-23T04:55:40;6.60;1.00
8557;DHT22;4316;53.840;10.762;2024-02-23T04:58:07;6.60;1.00
8557;DHT22;4316;53.840;10.762;2024-02-23T05:00:33;6.50;1.00
8557;DHT22;4316;53.840;10.762;2024-02-23T05:03:00;6.50;1.00
8557;DHT22;4316;53.840;10.762;2024-02-23T05:05:31;6.50;1.00
8557;DHT22;4316;53.840;10.762;2024-02-23T05:07:57;6.50;1.00
8557;DHT22;4316;53.840;10.762;2024-02-23T05:10:22;6.60;1.00
8557;DHT22;4316;53.840;10.762;2024-02-23T05:12:48;6.60;1.00
8557;DHT22;4316;53.840;10.762;2024-02-23T05:15:14;6.60;1.00
8557;DHT22;4316;53.840;10.762;2024-02-23T05:17:40;6.50;1.00
8557;DHT22;4316;53.840;10.762;2024-02-23T05:20:07;6.50;1.00
8557;DHT22;4316;53.840;10.762;2024-02-23T05:22:36;6.50;1.00
8557;DHT22;4316;53.840;10.762;2024-02-23T05:25:02;6.50;1.00
8557;DHT22;4316;53.840;10.762;2024-02-23T05:27:27;6.50;1.00
8557;DHT22;4316;53.840;10.762;2024-02-23T05:29:53;6.40;1.00
8557;DHT22;4316;53.840;10.762;2024-02-23T05:32:19;6.40;1.00
8557;DHT22;4316;53.840;10.762;2024-02-23T05:34:45;6.40;1.00
8557;DHT22;4316;53.840;10.762;2024-02-23T05:37:10;6.40;1.00
8557;DHT22;4316;53.840;10.762;2024-02-23T05:39:36;6.40;1.00
8557;DHT22;4316;53.840;10.762;2024-02-23T05:42:04;6.50;1.00
8557;DHT22;4316;53.840;10.762;2024-02-23T05:44:29;6.40;1.00
8557;DHT22;4316;53.840;10.762;2024-02-23T05:46:55;6.40;1.00
8557;DHT22;4316;53.840;10.762;2024-02-23T05:49:21;6.40;1.00
8557;DHT22;4316;53.840;10.762;2024-02-23T05:51:47;6.40;1.00
8557;DHT22;4316;53.840;10.762;2024-02-23T05:54:12;6.40;1.00
8557;DHT22;4316;53.840;10.762;2024-02-23T05:56:38;6.40;1.00
8557;DHT22;4316;53.840;10.762;2024-02-23T05:59:04;6.40;1.00
8557;DHT22;4316;53.840;10.762;2024-02-23T06:01:29;6.50;1.00
8557;DHT22;4316;53.840;10.762;2024-02-23T06:03:55;6.50;1.00
8557;DHT22;4316;53.840;10.762;2024-02-23T06:06:21;6.40;1.00
8557;DHT22;4316;53.840;10.762;2024-02-23T06:08:46;6.40;1.00
8557;DHT22;4316;53.840;10.762;2024-02-23T06:11:14;6.50;1.00
8557;DHT22;4316;53.840;10.762;2024-02-23T06:13:40;6.40;1.00
8557;DHT22;4316;53.840;10.762;2024-02-23T06:16:10;6.40;1.00
8557;DHT22;4316;53.840;10.762;2024-02-23T06:18:36;6.40;1.00
8557;DHT22;4316;53.840;10.762;2024-02-23T06:21:14;6.40;1.00
8557;DHT22;4316;53.840;10.762;2024-02-23T06:23:40;6.40;1.00
8557;DHT22;4316;53.840;10.762;2024-02-23T06:26:06;6.40;1.00
8557;DHT22;4316;53.840;10.762;2024-02-23T06:28:32;6.40;1.00
8557;DHT22;4316;53.840;10.762;2024-02-23T06:30:58;6.40;1.00
8557;DHT22;4316;53.840;10.762;2024-02-23T06:33:24;6.40;1.00
8557;DHT22;4316;53.840;10.762;2024-02-23T06:35:50;6.40;1.00
8557;DHT22;4316;53.840;10.762;2024-02-23T06:38:18;6.40;1.00
8557;DHT22;4316;53.840;10.762;2024-02-23T06:40:43;6.40;1.00
8557;DHT22;4316;53.840;10.762;2024-02-23T06:43:09;6.40;1.00
8557;DHT22;4316;53.840;10.762;2024-02-23T06:45:35;6.30;1.00
8557;DHT22;4316;53.840;10.762;2024-02-23T06:48:01;6.30;1.00
8557;DHT22;4316;53.840;10.762;2024-02-23T06:50:27;6.30;1.00
8557;DHT22;4316;53.840;10.762;2024-02-23T06:52:52;6.30;1.00
8557;DHT22;4316;53.840;10.762;2024-02-23T06:55:18;6.30;1.00
8557;DHT22;4316;53.840;10.762;2024-02-23T06:57:44;6.30;1.00
8557;DHT22;4316;53.840;10.762;2024-02-23T07:00:10;6.30;1.00
8557;DHT22;4316;53.840;10.762;2024-02-23T07:02:37;6.40;1.00
8557;DHT22;4316;53.840;10.762;2024-02-23T07:05:03;6.40;1.00
8557;DHT22;4316;53.840;10.762;2024-02-23T07:07:32;6.40;1.00
8557;DHT22;4316;53.840;10.762;2024-02-23T07:09:59;6.40;1.00
8557;DHT22;4316;53.840;10.762;2024-02-23T07:12:25;6.40;1.00
8557;DHT22;4316;53.840;10.762;2024-02-23T07:14:53;6.40;1.00
8557;DHT22;4316;53.840;10.762;2024-02-23T07:17:19;6.40;1.00
8557;DHT22;4316;53.840;10.762;2024-02-23T07:19:45;6.50;1.00
8557;DHT22;4316;53.840;10.762;2024-02-23T07:22:11;6.50;1.00
8557;DHT22;4316;53.840;10.762;2024-02-23T07:24:41;6.50;1.00
8557;DHT22;4316;53.840;10.762;2024-02-23T07:27:06;6.40;1.00
8557;DHT22;4316;53.840;10.762;2024-02-23T07:29:33;6.50;1.00
8557;DHT22;4316;53.840;10.762;2024-02-23T07:31:59;6.50;1.00
8557;DHT22;4316;53.840;10.762;2024-02-23T07:34:25;6.50;1.00
8557;DHT22;4316;53.840;10.762;2024-02-23T07:36:54;6.50;1.00
8557;DHT22;4316;53.840;10.762;2024-02-23T07:39:20;6.50;1.00
8557;DHT22;4316;53.840;10.762;2024-02-23T07:41:47;6.50;1.00
8557;DHT22;4316;53.840;10.762;2024-02-23T07:44:13;6.50;1.00
8557;DHT22;4316;53.840;10.762;2024-02-23T07:46:39;6.50;1.00
8557;DHT22;4316;53.840;10.762;2024-02-23T07:49:05;6.50;1.00
8557;DHT22;4316;53.840;10.762;2024-02-23T07:51:35;6.50;1.00
8557;DHT22;4316;53.840;10.762;2024-02-23T07:54:00;6.50;1.00
8557;DHT22;4316;53.840;10.762;2024-02-23T07:56:26;6.50;1.00
8557;DHT22;4316;53.840;10.762;2024-02-23T07:58:52;6.50;1.00
8557;DHT22;4316;53.840;10.762;2024-02-23T08:01:18;6.60;1.00
8557;DHT22;4316;53.840;10.762;2024-02-23T08:03:43;6.60;1.00
8557;DHT22;4316;53.840;10.762;2024-02-23T08:06:09;6.70;1.00
8557;DHT22;4316;53.840;10.762;2024-02-23T08:08:35;6.90;1.00
8557;DHT22;4316;53.840;10.762;2024-02-23T08:11:04;7.00;1.00
8557;DHT22;4316;53.840;10.762;2024-02-23T08:13:31;7.20;1.00
8557;DHT22;4316;53.840;10.762;2024-02-23T08:15:59;7.30;1.00
8557;DHT22;4316;53.840;10.762;2024-02-23T08:18:25;7.60;1.00
8557;DHT22;4316;53.840;10.762;2024-02-23T08:20:52;7.90;1.00
8557;DHT22;4316;53.840;10.762;2024-02-23T08:23:18;8.10;1.00
8557;DHT22;4316;53.840;10.762;2024-02-23T08:25:48;8.30;1.00
8557;DHT22;4316;53.840;10.762;2024-02-23T08:28:14;8.70;1.00
8557;DHT22;4316;53.840;10.762;2024-02-23T08:30:39;8.80;1.00
8557;DHT22;4316;53.840;10.762;2024-02-23T08:33:05;9.10;1.00
8557;DHT22;4316;53.840;10.762;2024-02-23T08:35:31;9.30;1.00
8557;DHT22;4316;53.840;10.762;2024-02-23T08:37:57;9.30;1.00
8557;DHT22;4316;53.840;10.762;2024-02-23T08:40:23;9.50;1.00
8557;DHT22;4316;53.840;10.762;2024-02-23T08:42:49;9.60;1.00
8557;DHT22;4316;53.840;10.762;2024-02-23T08:45:15;9.70;1.00
8557;DHT22;4316;53.840;10.762;2024-02-23T08:47:41;9.90;1.00
8557;DHT22;4316;53.840;10.762;2024-02-23T08:50:07;9.90;99.90
8557;DHT22;4316;53.840;10.762;2024-02-23T08:52:33;10.10;99.90
8557;DHT22;4316;53.840;10.762;2024-02-23T08:54:59;10.10;99.90
8557;DHT22;4316;53.840;10.762;2024-02-23T08:57:27;10.20;99.90
8557;DHT22;4316;53.840;10.762;2024-02-23T08:59:53;10.10;99.90
8557;DHT22;4316;53.840;10.762;2024-02-23T09:02:19;10.10;99.90
8557;DHT22;4316;53.840;10.762;2024-02-23T09:04:45;10.10;99.90
8557;DHT22;4316;53.840;10.762;2024-02-23T09:07:11;10.30;99.90
8557;DHT22;4316;53.840;10.762;2024-02-23T09:09:37;10.70;99.90
8557;DHT22;4316;53.840;10.762;2024-02-23T09:12:03;10.60;99.90
8557;DHT22;4316;53.840;10.762;2024-02-23T09:14:29;10.20;99.90
8557;DHT22;4316;53.840;10.762;2024-02-23T09:16:55;9.90;99.90
8557;DHT22;4316;53.840;10.762;2024-02-23T09:19:21;10.10;99.90
8557;DHT22;4316;53.840;10.762;2024-02-23T09:21:47;10.40;99.90
8557;DHT22;4316;53.840;10.762;2024-02-23T09:24:12;10.50;99.90
8557;DHT22;4316;53.840;10.762;2024-02-23T09:26:38;10.70;99.90
8557;DHT22;4316;53.840;10.762;2024-02-23T09:29:05;10.30;99.90
8557;DHT22;4316;53.840;10.762;2024-02-23T09:31:30;9.80;99.90
8557;DHT22;4316;53.840;10.762;2024-02-23T09:33:57;9.40;99.90
8557;DHT22;4316;53.840;10.762;2024-02-23T09:36:23;9.10;99.90
8557;DHT22;4316;53.840;10.762;2024-02-23T09:38:50;8.90;99.90
8557;DHT22;4316;53.840;10.762;2024-02-23T09:41:21;8.70;99.90
8557;DHT22;4316;53.840;10.762;2024-02-23T09:43:47;8.60;99.90
8557;DHT22;4316;53.840;10.762;2024-02-23T09:46:17;8.60;99.90
8557;DHT22;4316;53.840;10.762;2024-02-23T09:48:43;8.70;99.90
8557;DHT22;4316;53.840;10.762;2024-02-23T09:51:13;9.00;99.90
8557;DHT22;4316;53.840;10.762;2024-02-23T09:53:41;8.90;99.90
8557;DHT22;4316;53.840;10.762;2024-02-23T09:56:09;8.80;99.90
8557;DHT22;4316;53.840;10.762;2024-02-23T09:58:39;8.80;99.90
8557;DHT22;4316;53.840;10.762;2024-02-23T10:01:07;9.00;99.90
8557;DHT22;4316;53.840;10.762;2024-02-23T10:03:32;9.20;99.90
8557;DHT22;4316;53.840;10.762;2024-02-23T10:05:59;9.10;99.90
8557;DHT22;4316;53.840;10.762;2024-02-23T10:08:28;9.00;99.90
8557;DHT22;4316;53.840;10.762;2024-02-23T10:10:55;8.90;99.90
8557;DHT22;4316;53.840;10.762;2024-02-23T10:13:22;9.20;99.90
8557;DHT22;4316;53.840;10.762;2024-02-23T10:15:52;9.20;99.90
8557;DHT22;4316;53.840;10.762;2024-02-23T10:18:19;9.10;99.90
8557;DHT22;4316;53.840;10.762;2024-02-23T10:20:48;8.90;99.90
8557;DHT22;4316;53.840;10.762;2024-02-23T10:23:16;8.90;99.90
8557;DHT22;4316;53.840;10.762;2024-02-23T10:25:42;9.00;99.90
8557;DHT22;4316;53.840;10.762;2024-02-23T10:28:08;8.80;99.90
8557;DHT22;4316;53.840;10.762;2024-02-23T10:30:37;9.00;99.90
8557;DHT22;4316;53.840;10.762;2024-02-23T10:33:05;9.10;99.90
8557;DHT22;4316;53.840;10.762;2024-02-23T10:35:32;9.50;99.90
8557;DHT22;4316;53.840;10.762;2024-02-23T10:38:01;10.30;99.90
8557;DHT22;4316;53.840;10.762;2024-02-23T10:40:30;10.50;99.90
8557;DHT22;4316;53.840;10.762;2024-02-23T10:43:00;10.30;99.90
8557;DHT22;4316;53.840;10.762;2024-02-23T10:45:29;9.60;99.90
8557;DHT22;4316;53.840;10.762;2024-02-23T10:47:55;9.30;99.90
8557;DHT22;4316;53.840;10.762;2024-02-23T10:50:22;9.20;99.90
8557;DHT22;4316;53.840;10.762;2024-02-23T10:52:49;9.20;99.90
8557;DHT22;4316;53.840;10.762;2024-02-23T10:55:15;9.20;99.90
8557;DHT22;4316;53.840;10.762;2024-02-23T10:57:42;9.20;99.90
8557;DHT22;4316;53.840;10.762;2024-02-23T11:00:09;9.30;99.90
8557;DHT22;4316;53.840;10.762;2024-02-23T11:02:43;9.30;99.90
8557;DHT22;4316;53.840;10.762;2024-02-23T11:05:11;9.50;99.90
8557;DHT22;4316;53.840;10.762;2024-02-23T11:07:41;9.50;99.90
8557;DHT22;4316;53.840;10.762;2024-02-23T11:10:07;9.40;99.90
8557;DHT22;4316;53.840;10.762;2024-02-23T11:12:37;9.40;99.90
8557;DHT22;4316;53.840;10.762;2024-02-23T11:15:02;9.40;99.90
8557;DHT22;4316;53.840;10.762;2024-02-23T11:17:30;9.30;99.90
8557;DHT22;4316;53.840;10.762;2024-02-23T11:19:56;9.40;99.90
8557;DHT22;4316;53.840;10.762;2024-02-23T11:22:27;9.70;99.90
8557;DHT22;4316;53.840;10.762;2024-02-23T11:24:53;9.90;99.90
8557;DHT22;4316;53.840;10.762;2024-02-23T11:27:19;9.80;99.90
8557;DHT22;4316;53.840;10.762;2024-02-23T11:29:48;9.70;99.90
8557;DHT22;4316;53.840;10.762;2024-02-23T11:35:07;9.70;99.90
8557;DHT22;4316;53.840;10.762;2024-02-23T11:37:54;9.90;99.90
8557;DHT22;4316;53.840;10.762;2024-02-23T11:40:31;10.00;99.90
8557;DHT22;4316;53.840;10.762;2024-02-23T11:42:58;10.10;99.90
8557;DHT22;4316;53.840;10.762;2024-02-23T11:45:31;10.20;99.90
8557;DHT22;4316;53.840;10.762;2024-02-23T11:47:56;10.20;99.90
8557;DHT22;4316;53.840;10.762;2024-02-23T11:50:22;10.20;99.90
8557;DHT22;4316;53.840;10.762;2024-02-23T11:52:48;10.00;99.90
8557;DHT22;4316;53.840;10.762;2024-02-23T11:55:19;9.90;99.90
8557;DHT22;4316;53.840;10.762;2024-02-23T11:57:48;9.80;99.90
8557;DHT22;4316;53.840;10.762;2024-02-23T12:00:14;9.70;99.90
8557;DHT22;4316;53.840;10.762;2024-02-23T12:02:40;9.60;99.90
8557;DHT22;4316;53.840;10.762;2024-02-23T12:05:06;9.70;99.90
8557;DHT22;4316;53.840;10.762;2024-02-23T12:07:33;9.70;99.90
8557;DHT22;4316;53.840;10.762;2024-02-23T12:10:00;9.70;99.90
8557;DHT22;4316;53.840;10.762;2024-02-23T12:12:26;9.70;99.90
8557;DHT22;4316;53.840;10.762;2024-02-23T12:14:52;9.70;99.90
8557;DHT22;4316;53.840;10.762;2024-02-23T12:17:18;9.80;99.90
8557;DHT22;4316;53.840;10.762;2024-02-23T12:19:44;9.80;99.90
8557;DHT22;4316;53.840;10.762;2024-02-23T12:22:13;9.90;99.90
8557;DHT22;4316;53.840;10.762;2024-02-23T12:24:40;9.90;99.90
8557;DHT22;4316;53.840;10.762;2024-02-23T12:27:07;9.90;99.90
8557;DHT22;4316;53.840;10.762;2024-02-23T12:29:33;10.00;99.90
8557;DHT22;4316;53.840;10.762;2024-02-23T12:32:05;10.00;99.90
8557;DHT22;4316;53.840;10.762;2024-02-23T12:34:32;9.90;99.90
8557;DHT22;4316;53.840;10.762;2024-02-23T12:36:58;9.90;99.90
8557;DHT22;4316;53.840;10.762;2024-02-23T12:39:23;9.90;99.90
8557;DHT22;4316;53.840;10.762;2024-02-23T12:41:49;9.80;99.90
8557;DHT22;4316;53.840;10.762;2024-02-23T12:44:16;9.80;99.90
8557;DHT22;4316;53.840;10.762;2024-02-23T12:46:42;9.80;99.90
8557;DHT22;4316;53.840;10.762;2024-02-23T12:49:08;9.70;99.90
8557;DHT22;4316;53.840;10.762;2024-02-23T12:51:34;9.70;99.90
8557;DHT22;4316;53.840;10.762;2024-02-23T12:54:00;9.70;99.90
8557;DHT22;4316;53.840;10.762;2024-02-23T12:56:26;9.70;99.90
8557;DHT22;4316;53.840;10.762;2024-02-23T12:58:51;9.70;99.90
8557;DHT22;4316;53.840;10.762;2024-02-23T13:01:19;9.70;99.90
8557;DHT22;4316;53.840;10.762;2024-02-23T13:03:45;9.70;99.90
8557;DHT22;4316;53.840;10.762;2024-02-23T13:06:11;9.70;99.90
8557;DHT22;4316;53.840;10.762;2024-02-23T13:08:36;9.70;99.90
8557;DHT22;4316;53.840;10.762;2024-02-23T13:11:04;9.70;99.90
8557;DHT22;4316;53.840;10.762;2024-02-23T13:13:30;9.60;99.90
8557;DHT22;4316;53.840;10.762;2024-02-23T13:15:56;9.60;99.90
8557;DHT22;4316;53.840;10.762;2024-02-23T13:18:22;9.50;99.90
8557;DHT22;4316;53.840;10.762;2024-02-23T13:20:48;9.60;99.90
8557;DHT22;4316;53.840;10.762;2024-02-23T13:23:14;9.50;99.90
8557;DHT22;4316;53.840;10.762;2024-02-23T13:25:41;9.50;99.90
8557;DHT22;4316;53.840;10.762;2024-02-23T13:28:08;9.50;99.90
8557;DHT22;4316;53.840;10.762;2024-02-23T13:30:35;9.50;99.90
8557;DHT22;4316;53.840;10.762;2024-02-23T13:33:01;9.50;99.90
8557;DHT22;4316;53.840;10.762;2024-02-23T13:35:27;9.60;99.90
8557;DHT22;4316;53.840;10.762;2024-02-23T13:37:53;9.50;99.90
8557;DHT22;4316;53.840;10.762;2024-02-23T13:40:19;9.50;99.90
8557;DHT22;4316;53.840;10.762;2024-02-23T13:42:45;9.60;99.90
8557;DHT22;4316;53.840;10.762;2024-02-23T13:45:16;9.50;99.90
8557;DHT22;4316;53.840;10.762;2024-02-23T13:47:43;9.50;99.90
8557;DHT22;4316;53.840;10.762;2024-02-23T13:50:10;9.50;99.90
8557;DHT22;4316;53.840;10.762;2024-02-23T13:52:36;9.40;81.80
8557;DHT22;4316;53.840;10.762;2024-02-23T13:55:02;9.40;95.70
8557;DHT22;4316;53.840;10.762;2024-02-23T13:57:28;9.40;99.90
8557;DHT22;4316;53.840;10.762;2024-02-23T13:59:54;9.30;99.90
8557;DHT22;4316;53.840;10.762;2024-02-23T14:02:29;9.40;99.90
8557;DHT22;4316;53.840;10.762;2024-02-23T14:05:02;9.40;99.90
8557;DHT22;4316;53.840;10.762;2024-02-23T14:07:33;9.30;91.90
8557;DHT22;4316;53.840;10.762;2024-02-23T14:09:59;9.30;99.90
8557;DHT22;4316;53.840;10.762;2024-02-23T14:12:24;9.30;99.90
8557;DHT22;4316;53.840;10.762;2024-02-23T14:14:50;9.40;99.90
8557;DHT22;4316;53.840;10.762;2024-02-23T14:17:17;9.40;99.90
8557;DHT22;4316;53.840;10.762;2024-02-23T14:19:42;9.40;99.90
8557;DHT22;4316;53.840;10.762;2024-02-23T14:22:08;9.40;99.90
8557;DHT22;4316;53.840;10.762;2024-02-23T14:24:34;9.40;99.90
8557;DHT22;4316;53.840;10.762;2024-02-23T14:27:00;9.40;99.90
8557;DHT22;4316;53.840;10.762;2024-02-23T14:29:25;9.40;99.90
8557;DHT22;4316;53.840;10.762;2024-02-23T14:31:51;9.40;99.90
8557;DHT22;4316;53.840;10.762;2024-02-23T14:34:17;9.50;99.90
8557;DHT22;4316;53.840;10.762;2024-02-23T14:36:43;9.40;99.90
8557;DHT22;4316;53.840;10.762;2024-02-23T14:39:09;9.40;99.90
8557;DHT22;4316;53.840;10.762;2024-02-23T14:41:36;9.40;99.90
8557;DHT22;4316;53.840;10.762;2024-02-23T14:44:02;9.40;99.90
8557;DHT22;4316;53.840;10.762;2024-02-23T14:46:28;9.40;99.90
8557;DHT22;4316;53.840;10.762;2024-02-23T14:48:54;9.40;99.90
8557;DHT22;4316;53.840;10.762;2024-02-23T14:51:20;9.40;99.90
8557;DHT22;4316;53.840;10.762;2024-02-23T14:53:46;9.50;99.90
8557;DHT22;4316;53.840;10.762;2024-02-23T14:56:12;9.60;99.90
8557;DHT22;4316;53.840;10.762;2024-02-23T14:58:38;9.60;99.90
8557;DHT22;4316;53.840;10.762;2024-02-23T15:01:05;9.60;99.90
8557;DHT22;4316;53.840;10.762;2024-02-23T15:03:31;9.60;99.90
8557;DHT22;4316;53.840;10.762;2024-02-23T15:05:58;9.60;99.90
8557;DHT22;4316;53.840;10.762;2024-02-23T15:08:24;9.40;99.90
8557;DHT22;4316;53.840;10.762;2024-02-23T15:10:50;9.30;99.90
8557;DHT22;4316;53.840;10.762;2024-02-23T15:13:17;9.20;99.90
8557;DHT22;4316;53.840;10.762;2024-02-23T15:15:43;9.40;99.90
8557;DHT22;4316;53.840;10.762;2024-02-23T15:18:09;9.30;99.90
8557;DHT22;4316;53.840;10.762;2024-02-23T15:20:35;9.40;99.90
8557;DHT22;4316;53.840;10.762;2024-02-23T15:23:01;9.40;99.90
8557;DHT22;4316;53.840;10.762;2024-02-23T15:25:27;9.60;99.90
8557;DHT22;4316;53.840;10.762;2024-02-23T15:27:53;9.60;99.90
8557;DHT22;4316;53.840;10.762;2024-02-23T15:30:25;9.60;99.90
8557;DHT22;4316;53.840;10.762;2024-02-23T15:32:54;9.30;99.90
8557;DHT22;4316;53.840;10.762;2024-02-23T15:35:20;9.20;99.90
8557;DHT22;4316;53.840;10.762;2024-02-23T15:37:46;9.20;99.90
8557;DHT22;4316;53.840;10.762;2024-02-23T15:40:12;9.40;99.90
8557;DHT22;4316;53.840;10.762;2024-02-23T15:42:38;9.40;99.90
8557;DHT22;4316;53.840;10.762;2024-02-23T15:45:04;9.20;99.90
8557;DHT22;4316;53.840;10.762;2024-02-23T15:47:32;9.20;99.90
8557;DHT22;4316;53.840;10.762;2024-02-23T15:49:58;9.20;99.90
8557;DHT22;4316;53.840;10.762;2024-02-23T15:52:26;9.10;99.90
8557;DHT22;4316;53.840;10.762;2024-02-23T15:54:52;9.10;99.90
8557;DHT22;4316;53.840;10.762;2024-02-23T15:57:18;9.00;99.90
8557;DHT22;4316;53.840;10.762;2024-02-23T15:59:46;9.00;99.90
8557;DHT22;4316;53.840;10.762;2024-02-23T16:02:12;9.00;99.90
8557;DHT22;4316;53.840;10.762;2024-02-23T16:04:38;9.00;99.90
8557;DHT22;4316;53.840;10.762;2024-02-23T16:07:04;8.90;99.90